sensor_id;sensor_type;location;lat;lon;timestamp;pressure;altitude;pressure_sealevel;temperature
15144;BMP180;7672;50.834;6.286;2023-07-28T00:00:59;98768.19;;;20.63
15144;BMP180;7672;50.834;6.286;2023-07-28T00:03:27;98766.47;;;20.63
15144;BMP180;7672;50.834;6.286;2023-07-28T00:05:54;98775.00;;;20.64
15144;BMP180;7672;50.834;6.286;2023-07-28T00:08:21;98776.75;;;20.63
15144;BMP180;7672;50.834;6.286;2023-07-28T00:10:48;98773.19;;;20.66
15144;BMP180;7672;50.834;6.286;2023-07-28T00:13:16;98776.56;;;20.66
15144;BMP180;7672;50.834;6.286;2023-07-28T00:15:43;98783.22;;;20.70
15144;BMP180;7672;50.834;6.286;2023-07-28T00:18:10;98771.38;;;20.68
15144;BMP180;7672;50.834;6.286;2023-07-28T00:20:37;98777.25;;;20.70
15144;BMP180;7672;50.834;6.286;2023-07-28T00:23:04;98767.06;;;20.68
15144;BMP180;7672;50.834;6.286;2023-07-28T00:25:31;98776.31;;;20.72
15144;BMP180;7672;50.834;6.286;2023-07-28T00:27:59;98766.84;;;20.73
15144;BMP180;7672;50.834;6.286;2023-07-28T00:30:26;98759.06;;;20.74
15144;BMP180;7672;50.834;6.286;2023-07-28T00:32:53;98754.69;;;20.76
15144;BMP180;7672;50.834;6.286;2023-07-28T00:35:20;98760.56;;;20.78
15144;BMP180;7672;50.834;6.286;2023-07-28T00:37:48;98758.00;;;20.78
15144;BMP180;7672;50.834;6.286;2023-07-28T00:40:15;98758.78;;;20.80
15144;BMP180;7672;50.834;6.286;2023-07-28T00:42:42;98757.88;;;20.81
15144;BMP180;7672;50.834;6.286;2023-07-28T00:45:09;98759.44;;;20.84
15144;BMP180;7672;50.834;6.286;2023-07-28T00:47:37;98750.84;;;20.85
15144;BMP180;7672;50.834;6.286;2023-07-28T00:50:05;98748.09;;;20.88
15144;BMP180;7672;50.834;6.286;2023-07-28T00:52:32;98751.56;;;20.87
15144;BMP180;7672;50.834;6.286;2023-07-28T00:55:01;98751.50;;;20.88
15144;BMP180;7672;50.834;6.286;2023-07-28T00:57:28;98746.34;;;20.88
15144;BMP180;7672;50.834;6.286;2023-07-28T00:59:55;98754.81;;;20.90
15144;BMP180;7672;50.834;6.286;2023-07-28T01:02:23;98747.94;;;20.91
15144;BMP180;7672;50.834;6.286;2023-07-28T01:04:50;98747.03;;;20.92
15144;BMP180;7672;50.834;6.286;2023-07-28T01:07:37;98753.84;;;20.93
15144;BMP180;7672;50.834;6.286;2023-07-28T01:10:31;98748.00;;;20.89
15144;BMP180;7672;50.834;6.286;2023-07-28T01:12:59;98739.50;;;20.89
15144;BMP180;7672;50.834;6.286;2023-07-28T01:15:26;98739.31;;;20.92
15144;BMP180;7672;50.834;6.286;2023-07-28T01:17:54;98739.25;;;20.93
15144;BMP180;7672;50.834;6.286;2023-07-28T01:20:24;98745.97;;;20.96
15144;BMP180;7672;50.834;6.286;2023-07-28T01:23:19;98741.81;;;20.93
15144;BMP180;7672;50.834;6.286;2023-07-28T01:25:53;98744.38;;;20.93
15144;BMP180;7672;50.834;6.286;2023-07-28T01:28:22;98740.16;;;20.92
15144;BMP180;7672;50.834;6.286;2023-07-28T01:30:50;98747.78;;;20.94
15144;BMP180;7672;50.834;6.286;2023-07-28T01:33:17;98748.53;;;20.96
15144;BMP180;7672;50.834;6.286;2023-07-28T01:35:44;98745.06;;;20.97
15144;BMP180;7672;50.834;6.286;2023-07-28T01:38:12;98744.25;;;20.96
15144;BMP180;7672;50.834;6.286;2023-07-28T01:40:40;98743.38;;;20.96
15144;BMP180;7672;50.834;6.286;2023-07-28T01:43:07;98744.16;;;20.98
15144;BMP180;7672;50.834;6.286;2023-07-28T01:45:34;98745.72;;;21.00
15144;BMP180;7672;50.834;6.286;2023-07-28T01:48:01;98742.31;;;21.00
15144;BMP180;7672;50.834;6.286;2023-07-28T01:50:28;98743.91;;;21.02
15144;BMP180;7672;50.834;6.286;2023-07-28T01:52:55;98739.59;;;21.03
15144;BMP180;7672;50.834;6.286;2023-07-28T01:55:22;98740.41;;;21.03
15144;BMP180;7672;50.834;6.286;2023-07-28T01:57:56;98747.22;;;21.04
15144;BMP180;7672;50.834;6.286;2023-07-28T02:00:24;98743.75;;;21.05
15144;BMP180;7672;50.834;6.286;2023-07-28T02:02:52;98735.19;;;21.05
15144;BMP180;7672;50.834;6.286;2023-07-28T02:05:19;98740.19;;;21.08
15144;BMP180;7672;50.834;6.286;2023-07-28T02:07:47;98746.91;;;21.10
15144;BMP180;7672;50.834;6.286;2023-07-28T02:10:14;98737.44;;;21.11
15144;BMP180;7672;50.834;6.286;2023-07-28T02:12:41;98742.50;;;21.12
15144;BMP180;7672;50.834;6.286;2023-07-28T02:15:09;98730.47;;;21.12
15144;BMP180;7672;50.834;6.286;2023-07-28T02:17:36;98745.88;;;21.12
15144;BMP180;7672;50.834;6.286;2023-07-28T02:20:04;98740.75;;;21.12
15144;BMP180;7672;50.834;6.286;2023-07-28T02:22:31;98739.94;;;21.12
15144;BMP180;7672;50.834;6.286;2023-07-28T02:24:58;98745.84;;;21.14
15144;BMP180;7672;50.834;6.286;2023-07-28T02:27:30;98744.09;;;21.14
15144;BMP180;7672;50.834;6.286;2023-07-28T02:29:57;98746.56;;;21.16
15144;BMP180;7672;50.834;6.286;2023-07-28T02:32:25;98738.78;;;21.17
15144;BMP180;7672;50.834;6.286;2023-07-28T02:34:52;98740.44;;;21.18
15144;BMP180;7672;50.834;6.286;2023-07-28T02:37:20;98744.75;;;21.18
15144;BMP180;7672;50.834;6.286;2023-07-28T02:39:47;98743.84;;;21.19
15144;BMP180;7672;50.834;6.286;2023-07-28T02:42:14;98743.00;;;21.18
15144;BMP180;7672;50.834;6.286;2023-07-28T02:44:42;98746.44;;;21.19
15144;BMP180;7672;50.834;6.286;2023-07-28T02:47:09;98747.25;;;21.19
15144;BMP180;7672;50.834;6.286;2023-07-28T02:49:36;98747.31;;;21.18
15144;BMP180;7672;50.834;6.286;2023-07-28T02:52:03;98741.28;;;21.19
15144;BMP180;7672;50.834;6.286;2023-07-28T02:54:31;98749.00;;;21.19
15144;BMP180;7672;50.834;6.286;2023-07-28T02:56:58;98747.25;;;21.19
15144;BMP180;7672;50.834;6.286;2023-07-28T02:59:25;98751.56;;;21.19
15144;BMP180;7672;50.834;6.286;2023-07-28T03:01:52;98749.81;;;21.19
15144;BMP180;7672;50.834;6.286;2023-07-28T03:04:20;98750.63;;;21.20
15144;BMP180;7672;50.834;6.286;2023-07-28T03:07:23;98757.59;;;21.18
15144;BMP180;7672;50.834;6.286;2023-07-28T03:09:57;98757.59;;;21.18
15144;BMP180;7672;50.834;6.286;2023-07-28T03:12:25;98759.31;;;21.17
15144;BMP180;7672;50.834;6.286;2023-07-28T03:14:52;98761.84;;;21.19
15144;BMP180;7672;50.834;6.286;2023-07-28T03:17:19;98764.56;;;21.16
15144;BMP180;7672;50.834;6.286;2023-07-28T03:19:46;98767.13;;;21.16
15144;BMP180;7672;50.834;6.286;2023-07-28T03:22:13;98768.88;;;21.15
15144;BMP180;7672;50.834;6.286;2023-07-28T03:24:40;98765.41;;;21.16
15144;BMP180;7672;50.834;6.286;2023-07-28T03:27:09;98767.97;;;21.16
15144;BMP180;7672;50.834;6.286;2023-07-28T03:29:36;98767.88;;;21.18
15144;BMP180;7672;50.834;6.286;2023-07-28T03:32:04;98776.31;;;21.20
15144;BMP180;7672;50.834;6.286;2023-07-28T03:34:31;98772.13;;;21.19
15144;BMP180;7672;50.834;6.286;2023-07-28T03:37:00;98779.75;;;21.20
15144;BMP180;7672;50.834;6.286;2023-07-28T03:39:27;98770.28;;;21.21
15144;BMP180;7672;50.834;6.286;2023-07-28T03:41:55;98770.28;;;21.21
15144;BMP180;7672;50.834;6.286;2023-07-28T03:44:23;98774.59;;;21.20
15144;BMP180;7672;50.834;6.286;2023-07-28T03:46:50;98776.28;;;21.21
15144;BMP180;7672;50.834;6.286;2023-07-28T03:49:17;98771.94;;;21.22
15144;BMP180;7672;50.834;6.286;2023-07-28T03:51:44;98778.84;;;21.21
15144;BMP180;7672;50.834;6.286;2023-07-28T03:54:11;98776.19;;;21.23
15144;BMP180;7672;50.834;6.286;2023-07-28T03:56:38;98776.09;;;21.24
15144;BMP180;7672;50.834;6.286;2023-07-28T03:59:05;98782.06;;;21.25
15144;BMP180;7672;50.834;6.286;2023-07-28T04:01:32;98785.56;;;21.24
15144;BMP180;7672;50.834;6.286;2023-07-28T04:03:59;98787.38;;;21.22
15144;BMP180;7672;50.834;6.286;2023-07-28T04:06:44;98778.75;;;21.23
15144;BMP180;7672;50.834;6.286;2023-07-28T04:09:14;98782.13;;;21.23
15144;BMP180;7672;50.834;6.286;2023-07-28T04:11:41;98783.81;;;21.24
15144;BMP180;7672;50.834;6.286;2023-07-28T04:14:09;98788.84;;;21.26
15144;BMP180;7672;50.834;6.286;2023-07-28T04:16:36;98781.22;;;21.24
15144;BMP180;7672;50.834;6.286;2023-07-28T04:19:04;98779.41;;;21.26
15144;BMP180;7672;50.834;6.286;2023-07-28T04:21:31;98785.31;;;21.28
15144;BMP180;7672;50.834;6.286;2023-07-28T04:23:58;98780.91;;;21.30
15144;BMP180;7672;50.834;6.286;2023-07-28T04:26:25;98780.91;;;21.30
15144;BMP180;7672;50.834;6.286;2023-07-28T04:28:58;98780.91;;;21.30
15144;BMP180;7672;50.834;6.286;2023-07-28T04:31:26;98785.06;;;21.33
15144;BMP180;7672;50.834;6.286;2023-07-28T04:33:57;98787.56;;;21.34
15144;BMP180;7672;50.834;6.286;2023-07-28T04:36:32;98790.94;;;21.35
15144;BMP180;7672;50.834;6.286;2023-07-28T04:39:00;98793.50;;;21.35
15144;BMP180;7672;50.834;6.286;2023-07-28T04:41:27;98796.84;;;21.37
15144;BMP180;7672;50.834;6.286;2023-07-28T04:43:55;98790.84;;;21.36
15144;BMP180;7672;50.834;6.286;2023-07-28T04:46:24;98796.75;;;21.38
15144;BMP180;7672;50.834;6.286;2023-07-28T04:48:56;98792.28;;;21.42
15144;BMP180;7672;50.834;6.286;2023-07-28T04:51:42;98800.72;;;21.44
15144;BMP180;7672;50.834;6.286;2023-07-28T04:54:29;98799.06;;;21.43
15144;BMP180;7672;50.834;6.286;2023-07-28T04:56:56;98802.41;;;21.45
15144;BMP180;7672;50.834;6.286;2023-07-28T04:59:29;98804.88;;;21.46
15144;BMP180;7672;50.834;6.286;2023-07-28T05:01:57;98809.03;;;21.49
15144;BMP180;7672;50.834;6.286;2023-07-28T05:04:24;98816.75;;;21.49
15144;BMP180;7672;50.834;6.286;2023-07-28T05:06:51;98809.03;;;21.49
15144;BMP180;7672;50.834;6.286;2023-07-28T05:09:18;98819.19;;;21.52
15144;BMP180;7672;50.834;6.286;2023-07-28T05:11:46;98817.28;;;21.55
15144;BMP180;7672;50.834;6.286;2023-07-28T05:14:15;98819.75;;;21.57
15144;BMP180;7672;50.834;6.286;2023-07-28T05:16:42;98825.56;;;21.60
15144;BMP180;7672;50.834;6.286;2023-07-28T05:19:09;98827.16;;;21.63
15144;BMP180;7672;50.834;6.286;2023-07-28T05:21:55;98823.69;;;21.64
15144;BMP180;7672;50.834;6.286;2023-07-28T05:24:30;98826.91;;;21.67
15144;BMP180;7672;50.834;6.286;2023-07-28T05:26:57;98830.13;;;21.71
15144;BMP180;7672;50.834;6.286;2023-07-28T05:29:24;98827.41;;;21.74
15144;BMP180;7672;50.834;6.286;2023-07-28T05:31:54;98829.09;;;21.75
15144;BMP180;7672;50.834;6.286;2023-07-28T05:34:29;98830.47;;;21.80
15144;BMP180;7672;50.834;6.286;2023-07-28T05:36:57;98834.63;;;21.82
15144;BMP180;7672;50.834;6.286;2023-07-28T05:39:27;98839.69;;;21.84
15144;BMP180;7672;50.834;6.286;2023-07-28T05:41:54;98837.88;;;21.86
15144;BMP180;7672;50.834;6.286;2023-07-28T05:44:21;98842.94;;;21.87
15144;BMP180;7672;50.834;6.286;2023-07-28T05:46:49;98844.59;;;21.88
15144;BMP180;7672;50.834;6.286;2023-07-28T05:49:20;98851.47;;;21.88
15144;BMP180;7672;50.834;6.286;2023-07-28T05:51:47;98852.13;;;21.91
15144;BMP180;7672;50.834;6.286;2023-07-28T05:54:15;98854.53;;;21.94
15144;BMP180;7672;50.834;6.286;2023-07-28T05:56:43;98849.28;;;21.96
15144;BMP180;7672;50.834;6.286;2023-07-28T05:59:10;98854.28;;;21.99
15144;BMP180;7672;50.834;6.286;2023-07-28T06:01:37;98861.84;;;22.02
15144;BMP180;7672;50.834;6.286;2023-07-28T06:04:26;98859.25;;;22.02
15144;BMP180;7672;50.834;6.286;2023-07-28T06:06:56;98857.34;;;22.05
15144;BMP180;7672;50.834;6.286;2023-07-28T06:09:23;98859.84;;;22.07
15144;BMP180;7672;50.834;6.286;2023-07-28T06:11:50;98864.91;;;22.08
15144;BMP180;7672;50.834;6.286;2023-07-28T06:14:18;98861.31;;;22.11
15144;BMP180;7672;50.834;6.286;2023-07-28T06:16:45;98863.66;;;22.15
15144;BMP180;7672;50.834;6.286;2023-07-28T06:19:12;98865.97;;;22.20
15144;BMP180;7672;50.834;6.286;2023-07-28T06:21:41;98881.09;;;22.26
15144;BMP180;7672;50.834;6.286;2023-07-28T06:24:08;98873.31;;;22.27
15144;BMP180;7672;50.834;6.286;2023-07-28T06:26:35;98872.22;;;22.31
15144;BMP180;7672;50.834;6.286;2023-07-28T06:29:02;98867.72;;;22.35
15144;BMP180;7672;50.834;6.286;2023-07-28T06:31:29;98866.72;;;22.37
15144;BMP180;7672;50.834;6.286;2023-07-28T06:33:56;98869.97;;;22.40
15144;BMP180;7672;50.834;6.286;2023-07-28T06:36:24;98874.03;;;22.44
15144;BMP180;7672;50.834;6.286;2023-07-28T06:38:51;98884.03;;;22.49
15144;BMP180;7672;50.834;6.286;2023-07-28T06:41:19;98885.47;;;22.54
15144;BMP180;7672;50.834;6.286;2023-07-28T06:43:47;98882.53;;;22.60
15144;BMP180;7672;50.834;6.286;2023-07-28T06:46:15;98881.53;;;22.63
15144;BMP180;7672;50.834;6.286;2023-07-28T06:48:42;98889.00;;;22.67
15144;BMP180;7672;50.834;6.286;2023-07-28T06:51:09;98887.09;;;22.71
15144;BMP180;7672;50.834;6.286;2023-07-28T06:53:36;98895.38;;;22.76
15144;BMP180;7672;50.834;6.286;2023-07-28T06:56:06;98897.69;;;22.80
15144;BMP180;7672;50.834;6.286;2023-07-28T06:58:33;98902.41;;;22.88
15144;BMP180;7672;50.834;6.286;2023-07-28T07:01:01;98900.19;;;22.96
15144;BMP180;7672;50.834;6.286;2023-07-28T07:03:28;98903.94;;;23.05
15144;BMP180;7672;50.834;6.286;2023-07-28T07:05:55;98903.41;;;23.14
15144;BMP180;7672;50.834;6.286;2023-07-28T07:08:23;98911.44;;;23.24
15144;BMP180;7672;50.834;6.286;2023-07-28T07:10:50;98923.78;;;23.33
15144;BMP180;7672;50.834;6.286;2023-07-28T07:13:18;98919.28;;;23.36
15144;BMP180;7672;50.834;6.286;2023-07-28T07:15:46;98920.66;;;23.42
15144;BMP180;7672;50.834;6.286;2023-07-28T07:18:13;98924.63;;;23.47
15144;BMP180;7672;50.834;6.286;2023-07-28T07:20:40;98920.66;;;23.56
15144;BMP180;7672;50.834;6.286;2023-07-28T07:23:07;98922.97;;;23.60
15144;BMP180;7672;50.834;6.286;2023-07-28T07:25:34;98933.00;;;23.64
15144;BMP180;7672;50.834;6.286;2023-07-28T07:28:03;98929.41;;;23.67
15144;BMP180;7672;50.834;6.286;2023-07-28T07:30:33;98925.88;;;23.69
15144;BMP180;7672;50.834;6.286;2023-07-28T07:33:00;98931.75;;;23.71
15144;BMP180;7672;50.834;6.286;2023-07-28T07:35:27;98927.31;;;23.73
15144;BMP180;7672;50.834;6.286;2023-07-28T07:37:54;98934.16;;;23.74
15144;BMP180;7672;50.834;6.286;2023-07-28T07:40:21;98930.56;;;23.77
15144;BMP180;7672;50.834;6.286;2023-07-28T07:42:52;98934.59;;;23.81
15144;BMP180;7672;50.834;6.286;2023-07-28T07:45:19;98945.47;;;23.86
15144;BMP180;7672;50.834;6.286;2023-07-28T07:47:46;98931.47;;;23.90
15144;BMP180;7672;50.834;6.286;2023-07-28T07:50:13;98932.00;;;23.95
15144;BMP180;7672;50.834;6.286;2023-07-28T07:52:40;98930.78;;;24.00
15144;BMP180;7672;50.834;6.286;2023-07-28T07:55:10;98938.81;;;24.10
15144;BMP180;7672;50.834;6.286;2023-07-28T07:57:40;98939.59;;;24.24
15144;BMP180;7672;50.834;6.286;2023-07-28T08:00:09;98945.22;;;24.44
15144;BMP180;7672;50.834;6.286;2023-07-28T08:02:40;98939.94;;;24.72
15144;BMP180;7672;50.834;6.286;2023-07-28T08:05:12;98935.38;;;25.02
15144;BMP180;7672;50.834;6.286;2023-07-28T08:07:39;98937.88;;;25.28
15144;BMP180;7672;50.834;6.286;2023-07-28T08:10:06;98937.28;;;25.50
15144;BMP180;7672;50.834;6.286;2023-07-28T08:12:34;98932.00;;;25.63
15144;BMP180;7672;50.834;6.286;2023-07-28T08:15:01;98935.53;;;25.75
15144;BMP180;7672;50.834;6.286;2023-07-28T08:17:28;98934.31;;;25.80
15144;BMP180;7672;50.834;6.286;2023-07-28T08:19:55;98939.66;;;25.90
15144;BMP180;7672;50.834;6.286;2023-07-28T08:22:22;98932.19;;;25.98
15144;BMP180;7672;50.834;6.286;2023-07-28T08:24:49;98940.03;;;26.09
15144;BMP180;7672;50.834;6.286;2023-07-28T08:27:16;98939.16;;;26.20
15144;BMP180;7672;50.834;6.286;2023-07-28T08:32:10;98942.75;;;26.43
15144;BMP180;7672;50.834;6.286;2023-07-28T08:34:38;98950.09;;;26.49
15144;BMP180;7672;50.834;6.286;2023-07-28T08:37:08;98938.63;;;26.64
15144;BMP180;7672;50.834;6.286;2023-07-28T08:39:39;98947.81;;;26.91
15144;BMP180;7672;50.834;6.286;2023-07-28T08:42:06;98943.81;;;27.10
15144;BMP180;7672;50.834;6.286;2023-07-28T08:44:34;98950.78;;;27.21
15144;BMP180;7672;50.834;6.286;2023-07-28T08:47:04;98955.84;;;27.22
15144;BMP180;7672;50.834;6.286;2023-07-28T08:49:32;98963.88;;;27.19
15144;BMP180;7672;50.834;6.286;2023-07-28T08:52:03;98959.13;;;27.13
15144;BMP180;7672;50.834;6.286;2023-07-28T08:54:30;98955.81;;;27.11
15144;BMP180;7672;50.834;6.286;2023-07-28T08:56:58;98960.28;;;27.09
15144;BMP180;7672;50.834;6.286;2023-07-28T08:59:29;98961.00;;;27.11
15144;BMP180;7672;50.834;6.286;2023-07-28T09:01:57;98960.19;;;27.11
15144;BMP180;7672;50.834;6.286;2023-07-28T09:04:26;98967.84;;;27.12
15144;BMP180;7672;50.834;6.286;2023-07-28T09:06:53;98962.41;;;27.15
15144;BMP180;7672;50.834;6.286;2023-07-28T09:09:22;98965.72;;;27.17
15144;BMP180;7672;50.834;6.286;2023-07-28T09:12:00;98967.88;;;27.23
15144;BMP180;7672;50.834;6.286;2023-07-28T09:14:28;98964.03;;;27.50
15144;BMP180;7672;50.834;6.286;2023-07-28T09:16:55;98968.00;;;27.78
15144;BMP180;7672;50.834;6.286;2023-07-28T09:19:25;98971.66;;;27.97
15144;BMP180;7672;50.834;6.286;2023-07-28T09:22:01;98967.16;;;28.10
15144;BMP180;7672;50.834;6.286;2023-07-28T09:24:33;98967.84;;;28.34
15144;BMP180;7672;50.834;6.286;2023-07-28T09:27:01;98968.00;;;28.74
15144;BMP180;7672;50.834;6.286;2023-07-28T09:29:29;98968.75;;;28.97
15144;BMP180;7672;50.834;6.286;2023-07-28T09:32:04;98963.13;;;29.12
15144;BMP180;7672;50.834;6.286;2023-07-28T09:34:32;98961.72;;;29.29
15144;BMP180;7672;50.834;6.286;2023-07-28T09:37:05;98965.25;;;29.38
15144;BMP180;7672;50.834;6.286;2023-07-28T09:39:33;98961.81;;;29.58
15144;BMP180;7672;50.834;6.286;2023-07-28T09:42:02;98955.66;;;30.19
15144;BMP180;7672;50.834;6.286;2023-07-28T09:44:33;98957.88;;;31.00
15144;BMP180;7672;50.834;6.286;2023-07-28T09:47:01;98960.59;;;31.82
15144;BMP180;7672;50.834;6.286;2023-07-28T09:49:36;98957.69;;;32.21
15144;BMP180;7672;50.834;6.286;2023-07-28T09:52:09;98964.00;;;32.55
15144;BMP180;7672;50.834;6.286;2023-07-28T09:54:41;98965.41;;;32.67
15144;BMP180;7672;50.834;6.286;2023-07-28T09:57:19;98963.69;;;32.58
15144;BMP180;7672;50.834;6.286;2023-07-28T09:59:48;98962.44;;;32.35
15144;BMP180;7672;50.834;6.286;2023-07-28T10:02:17;98964.75;;;32.21
15144;BMP180;7672;50.834;6.286;2023-07-28T10:04:44;98959.63;;;32.19
15144;BMP180;7672;50.834;6.286;2023-07-28T10:07:12;98974.84;;;32.06
15144;BMP180;7672;50.834;6.286;2023-07-28T10:09:40;98971.69;;;31.93
15144;BMP180;7672;50.834;6.286;2023-07-28T10:12:18;98977.25;;;31.81
15144;BMP180;7672;50.834;6.286;2023-07-28T10:15:02;98972.47;;;31.67
15144;BMP180;7672;50.834;6.286;2023-07-28T10:17:34;98975.53;;;31.53
15144;BMP180;7672;50.834;6.286;2023-07-28T10:20:06;98982.81;;;31.50
15144;BMP180;7672;50.834;6.286;2023-07-28T10:22:44;98978.66;;;31.66
15144;BMP180;7672;50.834;6.286;2023-07-28T10:25:12;98982.16;;;31.93
15144;BMP180;7672;50.834;6.286;2023-07-28T10:27:51;98989.84;;;32.04
15144;BMP180;7672;50.834;6.286;2023-07-28T10:30:18;98989.16;;;32.02
15144;BMP180;7672;50.834;6.286;2023-07-28T10:32:49;98986.94;;;31.98
15144;BMP180;7672;50.834;6.286;2023-07-28T10:35:25;98983.81;;;31.94
15144;BMP180;7672;50.834;6.286;2023-07-28T10:37:53;98992.16;;;31.98
15144;BMP180;7672;50.834;6.286;2023-07-28T10:40:34;98989.31;;;32.01
15144;BMP180;7672;50.834;6.286;2023-07-28T10:43:03;98989.66;;;32.15
15144;BMP180;7672;50.834;6.286;2023-07-28T10:45:32;98987.19;;;32.41
15144;BMP180;7672;50.834;6.286;2023-07-28T10:48:00;98985.66;;;32.65
15144;BMP180;7672;50.834;6.286;2023-07-28T10:50:30;98985.63;;;32.92
15144;BMP180;7672;50.834;6.286;2023-07-28T10:53:01;98983.91;;;33.18
15144;BMP180;7672;50.834;6.286;2023-07-28T10:55:30;98990.91;;;33.34
15144;BMP180;7672;50.834;6.286;2023-07-28T10:57:57;98987.09;;;33.29
15144;BMP180;7672;50.834;6.286;2023-07-28T11:00:25;98979.16;;;33.13
15144;BMP180;7672;50.834;6.286;2023-07-28T11:02:54;98977.63;;;32.93
15144;BMP180;7672;50.834;6.286;2023-07-28T11:05:24;98989.34;;;32.72
15144;BMP180;7672;50.834;6.286;2023-07-28T11:07:58;98983.56;;;32.51
15144;BMP180;7672;50.834;6.286;2023-07-28T11:10:29;98984.41;;;32.42
15144;BMP180;7672;50.834;6.286;2023-07-28T11:13:01;98979.25;;;32.77
15144;BMP180;7672;50.834;6.286;2023-07-28T11:15:42;98984.50;;;33.29
15144;BMP180;7672;50.834;6.286;2023-07-28T11:18:09;98980.16;;;33.55
15144;BMP180;7672;50.834;6.286;2023-07-28T11:20:36;98976.31;;;33.75
15144;BMP180;7672;50.834;6.286;2023-07-28T11:23:04;98981.13;;;33.87
15144;BMP180;7672;50.834;6.286;2023-07-28T11:25:34;98976.75;;;33.95
15144;BMP180;7672;50.834;6.286;2023-07-28T11:28:02;98973.06;;;34.06
15144;BMP180;7672;50.834;6.286;2023-07-28T11:30:36;98988.03;;;34.13
15144;BMP180;7672;50.834;6.286;2023-07-28T11:33:09;98980.44;;;34.10
15144;BMP180;7672;50.834;6.286;2023-07-28T11:35:39;98984.19;;;34.00
15144;BMP180;7672;50.834;6.286;2023-07-28T11:38:09;98986.69;;;33.84
15144;BMP180;7672;50.834;6.286;2023-07-28T11:40:36;98986.19;;;33.55
15144;BMP180;7672;50.834;6.286;2023-07-28T11:43:04;98985.41;;;33.20
15144;BMP180;7672;50.834;6.286;2023-07-28T11:45:32;98993.38;;;32.84
15144;BMP180;7672;50.834;6.286;2023-07-28T11:48:05;98986.06;;;32.43
15144;BMP180;7672;50.834;6.286;2023-07-28T11:50:41;98989.16;;;32.02
15144;BMP180;7672;50.834;6.286;2023-07-28T11:53:09;98982.78;;;31.69
15144;BMP180;7672;50.834;6.286;2023-07-28T11:55:37;98981.72;;;31.43
15144;BMP180;7672;50.834;6.286;2023-07-28T11:58:06;98985.31;;;31.23
15144;BMP180;7672;50.834;6.286;2023-07-28T12:00:39;98976.41;;;31.07
15144;BMP180;7672;50.834;6.286;2023-07-28T12:03:12;98979.25;;;30.94
15144;BMP180;7672;50.834;6.286;2023-07-28T12:06:01;98980.22;;;30.84
15144;BMP180;7672;50.834;6.286;2023-07-28T12:08:36;98976.38;;;30.78
15144;BMP180;7672;50.834;6.286;2023-07-28T12:11:04;98979.38;;;30.74
15144;BMP180;7672;50.834;6.286;2023-07-28T12:13:50;98975.00;;;30.74
15144;BMP180;7672;50.834;6.286;2023-07-28T12:16:41;98971.41;;;30.75
15144;BMP180;7672;50.834;6.286;2023-07-28T12:19:11;98978.13;;;30.78
15144;BMP180;7672;50.834;6.286;2023-07-28T12:21:38;98975.00;;;30.74
15144;BMP180;7672;50.834;6.286;2023-07-28T12:24:05;98981.56;;;30.69
15144;BMP180;7672;50.834;6.286;2023-07-28T12:26:34;98977.34;;;30.68
15144;BMP180;7672;50.834;6.286;2023-07-28T12:29:05;98975.00;;;30.74
15144;BMP180;7672;50.834;6.286;2023-07-28T12:31:35;98972.13;;;30.87
15144;BMP180;7672;50.834;6.286;2023-07-28T12:34:12;98974.22;;;31.02
15144;BMP180;7672;50.834;6.286;2023-07-28T12:36:51;98982.28;;;31.18
15144;BMP180;7672;50.834;6.286;2023-07-28T12:39:21;98974.19;;;31.30
15144;BMP180;7672;50.834;6.286;2023-07-28T12:41:51;98981.56;;;31.44
15144;BMP180;7672;50.834;6.286;2023-07-28T12:44:21;98984.22;;;31.54
15144;BMP180;7672;50.834;6.286;2023-07-28T12:47:08;98988.59;;;31.53
15144;BMP180;7672;50.834;6.286;2023-07-28T12:49:35;98988.31;;;31.56
15144;BMP180;7672;50.834;6.286;2023-07-28T12:52:05;98990.22;;;31.64
15144;BMP180;7672;50.834;6.286;2023-07-28T12:54:45;98983.78;;;31.68
15144;BMP180;7672;50.834;6.286;2023-07-28T12:57:14;98990.47;;;31.70
15144;BMP180;7672;50.834;6.286;2023-07-28T12:59:41;98995.28;;;31.75
15144;BMP180;7672;50.834;6.286;2023-07-28T13:02:11;98989.09;;;31.76
15144;BMP180;7672;50.834;6.286;2023-07-28T13:04:38;98991.28;;;31.80
15144;BMP180;7672;50.834;6.286;2023-07-28T13:07:05;98982.19;;;31.84
15144;BMP180;7672;50.834;6.286;2023-07-28T13:09:35;98979.28;;;31.87
15144;BMP180;7672;50.834;6.286;2023-07-28T13:12:03;98980.50;;;31.92
15144;BMP180;7672;50.834;6.286;2023-07-28T13:14:34;98984.47;;;32.06
15144;BMP180;7672;50.834;6.286;2023-07-28T13:17:01;98976.97;;;32.20
15144;BMP180;7672;50.834;6.286;2023-07-28T13:19:28;98975.94;;;32.31
15144;BMP180;7672;50.834;6.286;2023-07-28T13:21:55;98978.38;;;32.42
15144;BMP180;7672;50.834;6.286;2023-07-28T13:24:22;98984.41;;;32.52
15144;BMP180;7672;50.834;6.286;2023-07-28T13:26:49;98988.91;;;32.59
15144;BMP180;7672;50.834;6.286;2023-07-28T13:29:16;98988.28;;;32.65
15144;BMP180;7672;50.834;6.286;2023-07-28T13:31:43;98984.53;;;32.67
15144;BMP180;7672;50.834;6.286;2023-07-28T13:34:10;98983.16;;;32.73
15144;BMP180;7672;50.834;6.286;2023-07-28T13:36:37;98980.22;;;32.76
15144;BMP180;7672;50.834;6.286;2023-07-28T13:39:04;98976.66;;;32.77
15144;BMP180;7672;50.834;6.286;2023-07-28T13:41:32;98979.41;;;32.75
15144;BMP180;7672;50.834;6.286;2023-07-28T13:44:00;98981.34;;;32.73
15144;BMP180;7672;50.834;6.286;2023-07-28T13:46:29;98979.19;;;32.69
15144;BMP180;7672;50.834;6.286;2023-07-28T13:48:56;98988.16;;;32.66
15144;BMP180;7672;50.834;6.286;2023-07-28T13:51:33;98971.25;;;32.61
15144;BMP180;7672;50.834;6.286;2023-07-28T13:54:20;98980.91;;;32.60
15144;BMP180;7672;50.834;6.286;2023-07-28T13:56:50;98981.69;;;32.61
15144;BMP180;7672;50.834;6.286;2023-07-28T13:59:20;98978.59;;;32.58
15144;BMP180;7672;50.834;6.286;2023-07-28T14:01:49;98982.72;;;32.51
15144;BMP180;7672;50.834;6.286;2023-07-28T14:04:17;98984.72;;;32.39
15144;BMP180;7672;50.834;6.286;2023-07-28T14:06:44;98974.59;;;32.27
15144;BMP180;7672;50.834;6.286;2023-07-28T14:09:11;98970.09;;;32.19
15144;BMP180;7672;50.834;6.286;2023-07-28T14:11:38;98962.00;;;32.13
15144;BMP180;7672;50.834;6.286;2023-07-28T14:14:05;98968.06;;;32.13
15144;BMP180;7672;50.834;6.286;2023-07-28T14:16:32;98959.38;;;32.13
15144;BMP180;7672;50.834;6.286;2023-07-28T14:18:59;98958.13;;;32.17
15144;BMP180;7672;50.834;6.286;2023-07-28T14:21:26;98960.97;;;32.23
15144;BMP180;7672;50.834;6.286;2023-07-28T14:23:53;98959.13;;;32.33
15144;BMP180;7672;50.834;6.286;2023-07-28T14:26:20;98951.78;;;32.46
15144;BMP180;7672;50.834;6.286;2023-07-28T14:28:47;98956.16;;;32.55
15144;BMP180;7672;50.834;6.286;2023-07-28T14:31:14;98956.81;;;32.57
15144;BMP180;7672;50.834;6.286;2023-07-28T14:33:41;98952.13;;;32.60
15144;BMP180;7672;50.834;6.286;2023-07-28T14:36:08;98948.69;;;32.60